createdAt,value
2022-10-22T00:00:28.780Z,11.82
2022-10-22T00:01:15.700Z,11.20
2022-10-22T00:02:02.711Z,11.88
2022-10-22T00:02:49.684Z,11.77
2022-10-22T00:03:36.750Z,11.95
2022-10-22T00:04:24.178Z,11.30
2022-10-22T00:05:11.860Z,11.70
2022-10-22T00:05:58.932Z,11.32
2022-10-22T00:06:45.849Z,11.70
2022-10-22T00:07:33.391Z,11.43
2022-10-22T00:08:20.592Z,11.80
2022-10-22T00:09:07.591Z,10.93
2022-10-22T00:09:54.480Z,12.68
2022-10-22T00:10:41.864Z,11.50
2022-10-22T00:11:29.671Z,11.57
2022-10-22T00:12:16.883Z,12.13
2022-10-22T00:13:03.993Z,11.35
2022-10-22T00:13:51.142Z,11.40
2022-10-22T00:14:38.232Z,12.00
2022-10-22T00:15:25.293Z,11.85
2022-10-22T00:16:12.521Z,11.63
2022-10-22T00:17:01.202Z,11.35
2022-10-22T00:17:49.821Z,11.73
2022-10-22T00:18:37.281Z,11.25
2022-10-22T00:19:24.394Z,11.88
2022-10-22T00:20:11.783Z,11.02
2022-10-22T00:20:58.771Z,11.63
2022-10-22T00:21:45.683Z,10.90
2022-10-22T00:22:32.600Z,11.65
2022-10-22T00:23:19.510Z,10.95
2022-10-22T00:24:06.629Z,12.13
2022-10-22T00:24:53.541Z,11.55
2022-10-22T00:25:40.634Z,11.88
2022-10-22T00:26:27.830Z,11.77
2022-10-22T00:27:14.959Z,11.70
2022-10-22T00:28:02.842Z,12.88
2022-10-22T00:28:49.798Z,11.50
2022-10-22T00:29:36.960Z,12.23
2022-10-22T00:30:24.200Z,11.80
2022-10-22T00:31:11.184Z,11.98
2022-10-22T00:31:58.132Z,12.37
2022-10-22T00:32:45.631Z,12.27
2022-10-22T00:33:32.720Z,11.77
2022-10-22T00:34:21.571Z,13.73
2022-10-22T00:35:08.721Z,12.63
2022-10-22T00:35:55.880Z,12.93
2022-10-22T00:36:42.931Z,11.35
2022-10-22T00:37:30.730Z,12.73
2022-10-22T00:38:17.691Z,12.15
2022-10-22T00:39:04.692Z,11.52
2022-10-22T00:39:51.641Z,12.23
2022-10-22T00:40:38.582Z,12.32
2022-10-22T00:41:25.610Z,12.68
2022-10-22T00:42:19.750Z,12.43
2022-10-22T00:43:06.649Z,12.15
2022-10-22T00:43:55.670Z,11.93
2022-10-22T00:45:07.689Z,12.30
2022-10-22T00:45:54.570Z,12.02
2022-10-22T00:46:41.752Z,12.23
2022-10-22T00:47:39.881Z,12.05
2022-10-22T00:48:29.573Z,11.43
2022-10-22T00:49:16.681Z,13.00
2022-10-22T00:50:05.923Z,11.77
2022-10-22T00:50:55.881Z,13.00
2022-10-22T00:51:42.810Z,12.27
2022-10-22T00:52:29.910Z,12.52
2022-10-22T00:53:20.540Z,13.75
2022-10-22T00:54:54.360Z,13.40
2022-10-22T00:55:42.863Z,12.25
2022-10-22T00:56:29.842Z,12.48
2022-10-22T00:57:18.250Z,13.32
2022-10-22T00:58:05.260Z,12.85
2022-10-22T00:58:54.643Z,12.48
2022-10-22T00:59:41.741Z,13.18
2022-10-22T01:00:29.044Z,13.02
2022-10-22T01:01:23.139Z,13.48
2022-10-22T01:02:10.264Z,13.95
2022-10-22T01:02:57.951Z,12.30
2022-10-22T01:03:44.880Z,12.90
2022-10-22T01:04:32.559Z,13.05
2022-10-22T01:05:19.672Z,13.25
2022-10-22T01:06:06.960Z,13.15
2022-10-22T01:06:53.932Z,13.45
2022-10-22T01:07:49.422Z,14.02
2022-10-22T01:08:51.339Z,14.13
2022-10-22T01:09:48.600Z,13.10
2022-10-22T01:10:44.930Z,14.20
2022-10-22T01:11:56.651Z,12.70
2022-10-22T01:12:46.780Z,13.20
2022-10-22T01:13:45.315Z,13.73
2022-10-22T01:14:35.670Z,14.00
2022-10-22T01:15:31.909Z,13.32
2022-10-22T01:16:55.821Z,12.88
2022-10-22T01:18:30.409Z,12.80
2022-10-22T01:19:54.711Z,13.38
2022-10-22T01:20:58.790Z,13.85
2022-10-22T01:21:53.789Z,13.35
2022-10-22T01:22:44.131Z,13.13
2022-10-22T01:23:50.981Z,13.40
2022-10-22T01:24:53.040Z,12.85
2022-10-22T01:25:51.301Z,12.52
2022-10-22T01:27:15.499Z,14.30
2022-10-22T01:28:19.425Z,12.68
2022-10-22T01:29:19.270Z,13.02
2022-10-22T01:30:08.098Z,13.35
2022-10-22T01:30:56.891Z,13.25
2022-10-22T01:31:46.931Z,13.27
2022-10-22T01:33:32.410Z,13.25
2022-10-22T01:34:19.580Z,13.45
2022-10-22T01:35:09.190Z,13.50
2022-10-22T01:35:56.810Z,14.30
2022-10-22T01:36:44.710Z,13.62
2022-10-22T01:37:34.915Z,14.02
2022-10-22T01:38:24.842Z,13.02
2022-10-22T01:39:13.141Z,14.15
2022-10-22T01:40:01.100Z,14.48
2022-10-22T01:40:48.761Z,13.50
2022-10-22T01:41:35.653Z,14.10
2022-10-22T01:42:22.498Z,14.23
2022-10-22T01:43:11.092Z,14.02
2022-10-22T01:43:57.921Z,12.65
2022-10-22T01:44:44.920Z,13.32
2022-10-22T01:45:37.261Z,13.68
2022-10-22T01:46:26.070Z,13.80
2022-10-22T01:48:00.551Z,13.98
2022-10-22T01:49:12.159Z,12.65
2022-10-22T01:50:07.491Z,12.48
2022-10-22T01:51:16.902Z,12.68
2022-10-22T01:52:36.780Z,12.70
2022-10-22T01:53:23.680Z,12.40
2022-10-22T01:54:33.833Z,14.63
2022-10-22T01:56:03.510Z,12.63
2022-10-22T01:57:09.729Z,12.73
2022-10-22T01:58:03.941Z,13.02
2022-10-22T01:59:15.310Z,13.10
2022-10-22T02:00:04.644Z,12.20
2022-10-22T02:01:01.201Z,12.73
2022-10-22T02:02:04.700Z,13.00
2022-10-22T02:03:11.412Z,13.07
2022-10-22T02:04:10.561Z,13.05
2022-10-22T02:05:08.459Z,12.82
2022-10-22T02:05:59.115Z,13.20
2022-10-22T02:06:47.301Z,13.88
2022-10-22T02:07:49.391Z,12.93
2022-10-22T02:08:37.010Z,13.98
2022-10-22T02:09:25.760Z,15.18
2022-10-22T02:10:13.377Z,13.18
2022-10-22T02:11:00.850Z,14.50
2022-10-22T02:11:48.291Z,13.27
2022-10-22T02:12:35.791Z,14.25
2022-10-22T02:13:29.409Z,15.57
2022-10-22T02:14:18.283Z,13.90
2022-10-22T02:15:05.720Z,14.07
2022-10-22T02:15:53.520Z,13.20
2022-10-22T02:16:43.499Z,13.32
2022-10-22T02:17:32.570Z,13.57
2022-10-22T02:18:23.729Z,13.40
2022-10-22T02:19:23.480Z,13.55
2022-10-22T02:20:21.170Z,13.93
2022-10-22T02:22:00.322Z,13.60
2022-10-22T02:22:47.750Z,13.85
2022-10-22T02:23:34.861Z,13.52
2022-10-22T02:24:22.210Z,13.70
2022-10-22T02:25:09.861Z,12.68
2022-10-22T02:26:07.800Z,13.27
2022-10-22T02:27:26.932Z,12.90
2022-10-22T02:28:20.320Z,13.13
2022-10-22T02:29:19.581Z,13.10
2022-10-22T02:31:15.802Z,13.07
2022-10-22T02:32:04.031Z,13.45
2022-10-22T02:33:09.272Z,13.75
2022-10-22T02:33:58.341Z,15.45
2022-10-22T02:34:45.451Z,15.80
2022-10-22T02:35:32.702Z,14.60
2022-10-22T02:36:20.231Z,14.35
2022-10-22T02:37:07.801Z,14.50
2022-10-22T02:37:55.850Z,13.98
2022-10-22T02:38:43.430Z,13.62
2022-10-22T02:39:32.059Z,13.88
2022-10-22T02:40:19.013Z,13.50
2022-10-22T02:41:06.094Z,13.27
2022-10-22T02:41:53.170Z,13.95
2022-10-22T02:42:41.539Z,14.27
2022-10-22T02:43:29.890Z,14.20
2022-10-22T02:44:21.261Z,14.43
2022-10-22T02:45:08.781Z,13.38
2022-10-22T02:45:55.882Z,14.52
2022-10-22T02:46:43.493Z,13.02
2022-10-22T02:47:30.491Z,13.48
2022-10-22T02:48:17.733Z,13.82
2022-10-22T02:49:05.011Z,13.60
2022-10-22T02:49:52.110Z,12.95
2022-10-22T02:50:39.099Z,14.68
2022-10-22T02:51:26.010Z,14.15
2022-10-22T02:52:12.902Z,13.77
2022-10-22T02:52:59.880Z,14.38
2022-10-22T02:53:46.751Z,13.88
2022-10-22T02:54:33.606Z,14.55
2022-10-22T02:55:20.489Z,14.35
2022-10-22T02:56:07.740Z,13.73
2022-10-22T02:56:54.621Z,13.85
2022-10-22T02:57:42.319Z,14.90
2022-10-22T02:58:29.520Z,13.52
2022-10-22T02:59:16.412Z,14.40
2022-10-22T03:00:05.701Z,14.13
2022-10-22T03:00:52.762Z,14.02
2022-10-22T03:01:39.720Z,14.68
2022-10-22T03:02:26.710Z,14.32
2022-10-22T03:03:13.751Z,14.60
2022-10-22T03:04:00.751Z,13.55
2022-10-22T03:04:48.470Z,14.25
2022-10-22T03:05:35.422Z,15.82
2022-10-22T03:06:22.422Z,14.48
2022-10-22T03:07:09.491Z,14.13
2022-10-22T03:07:56.410Z,14.68
2022-10-22T03:08:43.707Z,14.70
2022-10-22T03:09:30.900Z,14.13
2022-10-22T03:10:17.800Z,15.93
2022-10-22T03:11:04.722Z,14.93
2022-10-22T03:11:51.804Z,14.77
2022-10-22T03:12:38.790Z,14.73
2022-10-22T03:13:25.793Z,16.52
2022-10-22T03:14:12.909Z,15.68
2022-10-22T03:14:59.941Z,14.68
2022-10-22T03:15:49.742Z,15.50
2022-10-22T03:16:36.730Z,16.42
2022-10-22T03:17:23.621Z,15.27
2022-10-22T03:18:10.652Z,14.65
2022-10-22T03:18:57.520Z,15.32
2022-10-22T03:19:44.419Z,15.45
2022-10-22T03:20:31.499Z,14.98
2022-10-22T03:21:35.030Z,15.30
2022-10-22T03:22:25.500Z,14.75
2022-10-22T03:23:14.762Z,14.85
2022-10-22T03:24:08.171Z,14.25
2022-10-22T03:24:59.850Z,13.55
2022-10-22T03:25:48.659Z,15.32
2022-10-22T03:26:36.340Z,14.93
2022-10-22T03:27:23.612Z,14.75
2022-10-22T03:28:11.432Z,14.77
2022-10-22T03:28:58.500Z,15.85
2022-10-22T03:29:47.153Z,14.52
2022-10-22T03:30:34.030Z,14.90
2022-10-22T03:31:21.000Z,14.87
2022-10-22T03:32:08.040Z,14.63
2022-10-22T03:32:54.912Z,14.90
2022-10-22T03:33:41.833Z,15.30
2022-10-22T03:34:28.879Z,14.80
2022-10-22T03:35:15.820Z,15.18
2022-10-22T03:36:02.791Z,15.07
2022-10-22T03:36:50.172Z,14.23
2022-10-22T03:37:37.674Z,14.45
2022-10-22T03:38:24.991Z,14.73
2022-10-22T03:39:13.870Z,15.20
2022-10-22T03:40:00.909Z,14.43
2022-10-22T03:40:47.971Z,15.02
2022-10-22T03:41:35.620Z,15.43
2022-10-22T03:42:22.691Z,15.30
2022-10-22T03:43:09.796Z,15.60
2022-10-22T03:43:57.802Z,14.95
2022-10-22T03:44:44.650Z,15.40
2022-10-22T03:45:31.705Z,15.02
2022-10-22T03:46:19.271Z,15.00
2022-10-22T03:47:06.821Z,14.30
2022-10-22T03:47:53.871Z,14.63
2022-10-22T03:48:40.721Z,14.80
2022-10-22T03:49:27.620Z,14.57
2022-10-22T03:50:14.590Z,15.27
2022-10-22T03:51:01.531Z,14.70
2022-10-22T03:51:48.540Z,14.07
2022-10-22T03:52:37.539Z,14.00
2022-10-22T03:53:24.431Z,14.45
2022-10-22T03:54:11.360Z,14.32
2022-10-22T03:54:58.300Z,15.27
2022-10-22T03:55:45.241Z,15.05
2022-10-22T03:56:32.802Z,15.52
2022-10-22T03:57:19.690Z,14.93
2022-10-22T03:58:06.771Z,15.27
2022-10-22T03:58:56.610Z,15.90
2022-10-22T03:59:44.919Z,14.35
2022-10-22T04:00:31.942Z,14.10
2022-10-22T04:01:18.871Z,13.88
2022-10-22T04:02:06.409Z,14.45
2022-10-22T04:02:53.321Z,14.85
2022-10-22T04:03:40.821Z,14.65
2022-10-22T04:04:27.711Z,15.65
2022-10-22T04:06:11.181Z,14.93
2022-10-22T04:06:58.340Z,13.88
2022-10-22T04:07:45.323Z,14.80
2022-10-22T04:08:32.584Z,15.35
2022-10-22T04:09:19.510Z,14.93
2022-10-22T04:10:06.962Z,15.13
2022-10-22T04:10:53.943Z,14.90
2022-10-22T04:11:40.930Z,14.98
2022-10-22T04:12:27.780Z,15.05
2022-10-22T04:13:14.680Z,14.90
2022-10-22T04:14:01.580Z,15.35
2022-10-22T04:14:48.530Z,14.85
2022-10-22T04:15:35.715Z,15.13
2022-10-22T04:16:25.138Z,14.32
2022-10-22T04:17:14.469Z,14.23
2022-10-22T04:18:01.341Z,14.65
2022-10-22T04:18:58.073Z,15.38
2022-10-22T04:19:59.102Z,14.25
2022-10-22T04:20:48.338Z,14.70
2022-10-22T04:21:39.689Z,15.20
2022-10-22T04:22:32.726Z,15.95
2022-10-22T04:23:23.179Z,15.52
2022-10-22T04:24:14.087Z,15.30
2022-10-22T04:25:07.244Z,16.25
2022-10-22T04:26:05.464Z,15.68
2022-10-22T04:26:58.830Z,15.35
2022-10-22T04:27:49.059Z,15.15
2022-10-22T04:28:38.950Z,16.02
2022-10-22T04:29:30.021Z,16.25
2022-10-22T04:30:18.412Z,15.57
2022-10-22T04:31:18.669Z,17.58
2022-10-22T04:32:07.885Z,15.98
2022-10-22T04:32:59.962Z,15.67
2022-10-22T04:33:51.151Z,14.82
2022-10-22T04:34:40.023Z,15.82
2022-10-22T04:35:30.902Z,14.87
2022-10-22T04:36:21.524Z,15.93
2022-10-22T04:37:12.001Z,15.27
2022-10-22T04:38:03.089Z,15.18
2022-10-22T04:38:58.499Z,14.85
2022-10-22T04:39:50.900Z,15.30
2022-10-22T04:40:41.666Z,15.90
2022-10-22T04:42:20.989Z,14.05
2022-10-22T04:43:15.200Z,14.00
2022-10-22T04:44:05.450Z,15.05
2022-10-22T04:44:56.900Z,15.15
2022-10-22T04:45:47.266Z,15.13
2022-10-22T04:46:41.510Z,16.55
2022-10-22T04:47:30.763Z,15.90
2022-10-22T04:48:20.750Z,15.63
2022-10-22T04:49:10.804Z,15.50
2022-10-22T04:50:01.831Z,16.08
2022-10-22T04:50:51.277Z,15.65
2022-10-22T04:51:42.191Z,15.27
2022-10-22T04:52:32.983Z,15.82
2022-10-22T04:54:14.956Z,15.65
2022-10-22T04:55:05.089Z,15.35
2022-10-22T04:55:53.379Z,14.68
2022-10-22T04:56:43.279Z,15.73
2022-10-22T04:57:32.910Z,16.62
2022-10-22T04:58:23.417Z,16.27
2022-10-22T04:59:15.332Z,15.85
2022-10-22T05:00:05.923Z,15.98
2022-10-22T05:00:55.952Z,15.65
2022-10-22T05:01:46.473Z,18.15
2022-10-22T05:02:35.271Z,17.85
2022-10-22T05:03:28.904Z,17.35
2022-10-22T05:04:21.920Z,16.77
2022-10-22T05:05:14.458Z,15.48
2022-10-22T05:06:05.260Z,15.82
2022-10-22T05:06:54.331Z,15.23
2022-10-22T05:07:45.901Z,15.57
2022-10-22T05:08:36.634Z,15.98
2022-10-22T05:09:24.750Z,14.55
2022-10-22T05:10:13.770Z,15.85
2022-10-22T05:11:11.938Z,15.10
2022-10-22T05:12:02.603Z,15.48
2022-10-22T05:12:54.092Z,15.30
2022-10-22T05:13:48.878Z,15.20
2022-10-22T05:14:42.561Z,16.02
2022-10-22T05:15:37.316Z,14.55
2022-10-22T05:16:28.771Z,15.73
2022-10-22T05:17:19.761Z,15.82
2022-10-22T05:19:02.410Z,15.10
2022-10-22T05:19:53.930Z,14.80
2022-10-22T05:20:45.709Z,14.93
2022-10-22T05:21:36.081Z,15.02
2022-10-22T05:22:25.544Z,15.77
2022-10-22T05:23:14.991Z,15.00
2022-10-22T05:24:05.840Z,15.35
2022-10-22T05:24:58.351Z,15.45
2022-10-22T05:25:47.031Z,15.25
2022-10-22T05:26:39.334Z,15.43
2022-10-22T05:27:29.842Z,15.90
2022-10-22T05:28:21.037Z,16.25
2022-10-22T05:29:12.110Z,16.27
2022-10-22T05:30:02.756Z,13.98
2022-10-22T05:31:00.050Z,15.35
2022-10-22T05:31:52.843Z,16.05
2022-10-22T05:32:43.199Z,15.88
2022-10-22T05:33:34.931Z,15.43
2022-10-22T05:34:24.791Z,14.55
2022-10-22T05:35:14.408Z,14.65
2022-10-22T05:36:05.831Z,15.52
2022-10-22T05:36:56.839Z,14.70
2022-10-22T05:37:48.816Z,14.60
2022-10-22T05:38:39.780Z,15.73
2022-10-22T05:39:30.611Z,15.23
2022-10-22T05:40:30.391Z,13.95
2022-10-22T05:41:26.952Z,14.32
2022-10-22T05:42:17.719Z,15.27
2022-10-22T05:43:07.360Z,15.23
2022-10-22T05:43:59.406Z,14.57
2022-10-22T05:44:52.803Z,14.98
2022-10-22T05:45:47.445Z,14.93
2022-10-22T05:46:38.770Z,14.52
2022-10-22T05:47:32.720Z,15.75
2022-10-22T05:48:23.667Z,14.25
2022-10-22T05:50:07.115Z,15.45
2022-10-22T05:50:58.053Z,14.95
2022-10-22T05:51:52.191Z,14.95
2022-10-22T05:52:42.949Z,15.93
2022-10-22T05:53:36.190Z,15.63
2022-10-22T05:54:27.842Z,15.02
2022-10-22T05:55:17.989Z,15.13
2022-10-22T05:56:14.320Z,15.73
2022-10-22T05:57:03.542Z,15.90
2022-10-22T05:57:53.053Z,15.43
2022-10-22T05:58:45.999Z,16.05
2022-10-22T05:59:37.450Z,15.02
2022-10-22T06:00:27.650Z,15.80
2022-10-22T06:01:26.365Z,12.73
2022-10-22T06:02:18.955Z,15.32
2022-10-22T06:03:11.183Z,16.42
2022-10-22T06:04:05.930Z,16.05
2022-10-22T06:04:55.872Z,15.38
2022-10-22T06:05:44.321Z,15.35
2022-10-22T06:06:49.700Z,16.12
2022-10-22T06:07:40.201Z,16.25
2022-10-22T06:08:30.442Z,16.45
2022-10-22T06:10:15.443Z,15.55
2022-10-22T06:11:06.991Z,16.55
2022-10-22T06:11:58.829Z,16.10
2022-10-22T06:12:49.819Z,16.87
2022-10-22T06:13:40.978Z,16.27
2022-10-22T06:14:34.247Z,15.93
2022-10-22T06:15:26.641Z,16.35
2022-10-22T06:16:18.851Z,15.70
2022-10-22T06:17:10.499Z,16.15
2022-10-22T06:18:00.888Z,16.30
2022-10-22T06:18:53.040Z,17.92
2022-10-22T06:19:43.601Z,15.10
2022-10-22T06:20:32.670Z,16.33
2022-10-22T06:21:23.211Z,15.97
2022-10-22T06:22:15.311Z,15.82
2022-10-22T06:23:05.700Z,17.02
2022-10-22T06:23:59.860Z,17.20
2022-10-22T06:24:49.311Z,15.57
2022-10-22T06:25:39.809Z,17.12
2022-10-22T06:27:20.921Z,16.10
2022-10-22T06:28:10.093Z,15.52
2022-10-22T06:28:59.641Z,15.30
2022-10-22T06:29:50.709Z,16.50
2022-10-22T06:30:43.054Z,15.50
2022-10-22T06:31:38.231Z,15.90
2022-10-22T06:32:30.221Z,16.25
2022-10-22T06:33:21.490Z,15.50
2022-10-22T06:34:14.431Z,16.70
2022-10-22T06:35:05.758Z,16.23
2022-10-22T06:35:56.382Z,16.52
2022-10-22T06:36:48.098Z,17.10
2022-10-22T06:37:39.453Z,17.42
2022-10-22T06:38:30.990Z,17.48
2022-10-22T06:39:22.931Z,16.42
2022-10-22T06:40:12.913Z,17.17
2022-10-22T06:41:11.361Z,16.67
2022-10-22T06:42:01.682Z,16.23
2022-10-22T06:42:52.823Z,17.17
2022-10-22T06:43:44.582Z,17.00
2022-10-22T06:44:35.656Z,16.85
2022-10-22T06:45:24.970Z,17.15
2022-10-22T06:46:19.859Z,18.05
2022-10-22T06:47:11.201Z,17.90
2022-10-22T06:48:02.773Z,18.00
2022-10-22T06:48:59.222Z,18.42
2022-10-22T06:49:49.998Z,18.05
2022-10-22T06:50:41.427Z,17.87
2022-10-22T06:51:32.690Z,17.92
2022-10-22T06:52:22.461Z,17.45
2022-10-22T06:53:12.880Z,17.60
2022-10-22T06:54:03.720Z,18.60
2022-10-22T06:55:43.311Z,16.65
2022-10-22T06:56:32.948Z,17.73
2022-10-22T06:57:25.802Z,17.15
2022-10-22T06:58:16.883Z,17.20
2022-10-22T06:59:09.536Z,16.15
2022-10-22T07:00:02.671Z,16.45
2022-10-22T07:01:04.013Z,15.57
2022-10-22T07:01:52.788Z,16.40
2022-10-22T07:02:44.029Z,15.68
2022-10-22T07:03:43.925Z,16.85
2022-10-22T07:04:34.659Z,16.40
2022-10-22T07:05:24.792Z,16.87
2022-10-22T07:06:17.600Z,16.35
2022-10-22T07:07:09.491Z,16.27
2022-10-22T07:08:00.959Z,15.38
2022-10-22T07:08:50.988Z,15.13
2022-10-22T07:09:42.432Z,15.15
2022-10-22T07:10:32.024Z,16.10
2022-10-22T07:11:28.844Z,15.20
2022-10-22T07:12:22.328Z,13.85
2022-10-22T07:13:12.582Z,14.93
2022-10-22T07:14:03.231Z,14.05
2022-10-22T07:14:54.368Z,13.13
2022-10-22T07:15:45.241Z,13.65
2022-10-22T07:16:35.106Z,13.50
2022-10-22T07:17:25.270Z,13.48
2022-10-22T07:18:14.908Z,14.38
2022-10-22T07:19:12.002Z,13.35
2022-10-22T07:20:02.094Z,14.32
2022-10-22T07:20:59.869Z,14.32
2022-10-22T07:21:52.982Z,13.88
2022-10-22T07:22:44.077Z,12.30
2022-10-22T07:23:36.444Z,14.02
2022-10-22T07:24:28.001Z,13.88
2022-10-22T07:25:19.660Z,13.95
2022-10-22T07:26:12.799Z,14.27
2022-10-22T07:27:01.565Z,16.27
2022-10-22T07:27:51.976Z,14.13
2022-10-22T07:28:41.715Z,15.73
2022-10-22T07:29:30.952Z,20.52
2022-10-22T07:30:20.261Z,23.17
2022-10-22T07:31:11.840Z,22.90
2022-10-22T07:32:02.229Z,21.50
2022-10-22T07:32:52.590Z,20.98
2022-10-22T07:33:43.708Z,22.75
2022-10-22T07:34:31.931Z,22.25
2022-10-22T07:35:23.197Z,22.45
2022-10-22T07:36:19.834Z,20.45
2022-10-22T07:37:09.400Z,18.45
2022-10-22T07:38:01.548Z,13.10
2022-10-22T07:38:56.733Z,13.48
2022-10-22T07:39:48.061Z,13.62
2022-10-22T07:40:39.161Z,12.10
2022-10-22T07:41:31.232Z,11.55
2022-10-22T07:42:21.898Z,10.15
2022-10-22T07:43:12.560Z,10.63
2022-10-22T07:44:03.228Z,9.98
2022-10-22T07:44:54.116Z,10.23
2022-10-22T07:45:44.289Z,10.05
2022-10-22T07:46:36.197Z,10.20
2022-10-22T07:47:27.975Z,9.20
2022-10-22T07:48:17.281Z,9.82
2022-10-22T07:49:07.713Z,8.90
2022-10-22T07:49:58.536Z,10.02
2022-10-22T07:50:50.533Z,9.52
2022-10-22T07:51:41.600Z,9.27
2022-10-22T07:52:31.751Z,9.93
2022-10-22T07:53:26.519Z,9.98
2022-10-22T07:54:18.138Z,10.38
2022-10-22T07:55:08.890Z,10.38
2022-10-22T07:56:02.768Z,9.85
2022-10-22T07:56:53.602Z,9.75
2022-10-22T07:58:34.593Z,10.57
2022-10-22T07:59:27.892Z,10.32
2022-10-22T08:00:21.706Z,9.95
2022-10-22T08:01:16.155Z,9.00
2022-10-22T08:02:05.621Z,10.25
2022-10-22T08:02:54.853Z,10.02
2022-10-22T08:03:49.473Z,11.00
2022-10-22T08:04:52.921Z,10.60
2022-10-22T08:05:46.349Z,10.32
2022-10-22T08:06:44.449Z,11.10
2022-10-22T08:07:45.391Z,10.80
2022-10-22T08:08:38.541Z,11.12
2022-10-22T08:09:28.466Z,10.70
2022-10-22T08:10:19.572Z,10.68
2022-10-22T08:11:10.776Z,11.30
2022-10-22T08:11:59.786Z,11.80
2022-10-22T08:12:49.439Z,9.88
2022-10-22T08:13:45.609Z,10.60
2022-10-22T08:14:36.781Z,11.00
2022-10-22T08:29:55.611Z,8.05
2022-10-22T08:30:43.032Z,8.82
2022-10-22T08:31:33.482Z,8.75
2022-10-22T08:32:23.158Z,8.85
2022-10-22T08:33:10.633Z,9.03
2022-10-22T08:34:01.115Z,9.45
2022-10-22T08:35:35.544Z,8.48
2022-10-22T08:36:22.521Z,8.50
2022-10-22T08:37:10.843Z,8.68
2022-10-22T08:37:59.249Z,9.00
2022-10-22T08:38:46.129Z,8.63
2022-10-22T08:39:32.965Z,8.32
2022-10-22T08:40:39.159Z,12.20
2022-10-22T08:41:27.467Z,11.55
2022-10-22T08:42:36.075Z,13.15
2022-10-22T08:43:57.050Z,15.00
2022-10-22T08:44:43.799Z,15.65
2022-10-22T08:45:40.731Z,16.73
2022-10-22T08:46:52.828Z,17.80
2022-10-22T08:48:09.652Z,17.12
2022-10-22T08:49:06.391Z,18.17
2022-10-22T08:49:54.545Z,18.70
2022-10-22T08:50:46.056Z,17.75
2022-10-22T08:51:40.650Z,20.05
2022-10-22T08:55:09.986Z,17.73
2022-10-22T08:55:57.296Z,18.02
2022-10-22T08:56:49.919Z,18.20
2022-10-22T08:57:52.997Z,18.95
2022-10-22T08:59:04.665Z,19.00
2022-10-22T09:00:03.266Z,19.90
2022-10-22T09:00:59.678Z,20.05
2022-10-22T09:01:48.553Z,19.52
2022-10-22T09:03:06.529Z,20.67
2022-10-22T09:04:13.287Z,20.55
2022-10-22T09:05:12.326Z,20.33
2022-10-22T09:06:15.782Z,19.08
2022-10-22T09:07:02.819Z,20.12
2022-10-22T09:07:50.664Z,19.05
2022-10-22T09:08:38.568Z,19.58
2022-10-22T09:09:29.881Z,18.98
2022-10-22T09:10:18.981Z,19.95
2022-10-22T09:11:11.503Z,20.45
2022-10-22T09:12:00.134Z,18.73
2022-10-22T09:12:48.600Z,21.98
2022-10-22T09:13:35.522Z,18.48
2022-10-22T09:14:24.664Z,18.85
2022-10-22T09:15:16.537Z,19.17
2022-10-22T09:16:45.063Z,18.58
2022-10-22T09:17:53.707Z,18.20
2022-10-22T09:18:59.911Z,18.40
2022-10-22T09:20:37.905Z,18.12
2022-10-22T09:21:27.625Z,17.58
2022-10-22T09:22:48.588Z,18.02
2022-10-22T09:24:05.191Z,18.48
2022-10-22T09:25:22.466Z,19.08
2022-10-22T09:26:17.665Z,18.60
2022-10-22T09:27:33.086Z,17.70
2022-10-22T09:28:21.608Z,18.02
2022-10-22T09:29:20.550Z,18.05
2022-10-22T09:30:22.329Z,18.75
2022-10-22T09:32:04.540Z,18.65
2022-10-22T09:33:42.030Z,17.75
2022-10-22T09:34:29.249Z,18.48
2022-10-22T09:35:22.859Z,17.90
2022-10-22T09:36:18.032Z,19.08
2022-10-22T09:37:09.507Z,18.83
2022-10-22T09:37:57.129Z,20.33
2022-10-22T09:38:51.114Z,19.85
2022-10-22T09:39:45.624Z,20.67
2022-10-22T09:40:32.469Z,20.65
2022-10-22T09:41:20.660Z,20.58
2022-10-22T09:42:08.452Z,20.58
2022-10-22T09:42:55.298Z,20.80
2022-10-22T09:43:42.185Z,21.17
2022-10-22T09:44:29.461Z,20.23
2022-10-22T09:45:22.629Z,20.52
2022-10-22T09:46:17.372Z,19.25
2022-10-22T09:47:05.938Z,20.45
2022-10-22T09:48:31.462Z,18.48
2022-10-22T09:49:31.049Z,19.55
2022-10-22T09:50:44.500Z,18.80
2022-10-22T09:51:47.611Z,19.65
2022-10-22T09:52:34.869Z,19.52
2022-10-22T09:53:31.102Z,19.20
2022-10-22T09:54:42.014Z,18.52
2022-10-22T09:55:29.492Z,19.08
2022-10-22T09:56:24.309Z,19.27
2022-10-22T09:57:21.751Z,18.55
2022-10-22T09:58:11.796Z,20.02
2022-10-22T09:58:58.929Z,18.45
2022-10-22T09:59:49.112Z,18.80
2022-10-22T10:00:39.694Z,19.48
2022-10-22T10:02:37.414Z,24.17
2022-10-22T10:03:28.043Z,24.33
2022-10-22T10:04:16.210Z,22.03
2022-10-22T10:05:05.017Z,21.10
2022-10-22T10:06:01.397Z,21.67
2022-10-22T10:06:56.499Z,19.98
2022-10-22T10:07:44.366Z,21.42
2022-10-22T10:08:31.822Z,20.73
2022-10-22T10:09:25.128Z,23.95
2022-10-22T10:10:20.477Z,23.30
2022-10-22T10:11:13.210Z,22.30
2022-10-22T10:12:05.672Z,23.73
2022-10-22T10:12:58.808Z,23.75
2022-10-22T10:13:46.942Z,25.10
2022-10-22T10:14:58.689Z,23.58
2022-10-22T10:15:57.388Z,21.73
2022-10-22T10:17:08.645Z,21.42
2022-10-22T10:18:12.877Z,20.17
2022-10-22T10:19:08.614Z,21.25
2022-10-22T10:20:04.503Z,21.80
2022-10-22T10:22:12.626Z,20.05
2022-10-22T10:23:30.008Z,20.25
2022-10-22T10:24:46.037Z,20.37
2022-10-22T10:25:38.191Z,19.73
2022-10-22T10:26:32.155Z,20.25
2022-10-22T10:27:34.055Z,21.10
2022-10-22T10:28:23.717Z,21.30
2022-10-22T10:29:16.469Z,20.08
2022-10-22T10:30:09.521Z,20.35
2022-10-22T10:31:21.839Z,20.67
2022-10-22T10:32:08.767Z,20.05
2022-10-22T10:32:55.660Z,21.92
2022-10-22T10:33:51.470Z,19.25
2022-10-22T10:34:49.174Z,20.20
2022-10-22T10:35:57.086Z,19.35
2022-10-22T10:37:04.681Z,19.48
2022-10-22T10:37:59.327Z,19.40
2022-10-22T10:38:56.990Z,19.40
2022-10-22T10:39:44.060Z,19.30
2022-10-22T10:40:41.459Z,18.35
2022-10-22T10:41:34.055Z,19.65
2022-10-22T10:42:26.893Z,19.30
2022-10-22T10:43:33.919Z,19.85
2022-10-22T10:44:27.777Z,23.83
2022-10-22T10:45:47.368Z,20.40
2022-10-22T10:46:52.046Z,19.67
2022-10-22T10:47:53.790Z,18.77
2022-10-22T10:48:53.571Z,19.12
2022-10-22T10:49:42.155Z,18.77
2022-10-22T10:51:05.696Z,18.87
2022-10-22T10:52:00.677Z,17.83
2022-10-22T10:53:22.370Z,17.00
2022-10-22T10:54:33.601Z,17.27
2022-10-22T10:56:13.471Z,17.73
2022-10-22T10:57:37.953Z,17.40
2022-10-22T10:58:38.611Z,17.90
2022-10-22T11:00:04.596Z,17.55
2022-10-22T11:00:58.122Z,17.87
2022-10-22T11:02:09.677Z,17.80
2022-10-22T11:03:15.571Z,17.95
2022-10-22T11:04:30.357Z,17.30
2022-10-22T11:05:39.891Z,17.50
2022-10-22T11:06:28.048Z,18.17
2022-10-22T11:07:33.541Z,18.02
2022-10-22T11:08:22.071Z,16.92
2022-10-22T11:09:34.931Z,16.80
2022-10-22T11:11:00.843Z,16.10
2022-10-22T11:11:50.783Z,16.02
2022-10-22T11:12:41.893Z,16.10
2022-10-22T11:14:26.526Z,16.67
2022-10-22T11:17:17.757Z,16.30
2022-10-22T11:18:18.390Z,16.50
2022-10-22T11:19:49.636Z,15.55
2022-10-22T11:20:44.058Z,15.88
2022-10-22T11:21:37.059Z,16.25
2022-10-22T11:22:30.536Z,16.20
2022-10-22T11:23:56.313Z,15.95
2022-10-22T11:25:03.677Z,16.30
2022-10-22T11:25:51.098Z,16.10
2022-10-22T11:26:52.074Z,15.82
2022-10-22T11:27:49.373Z,15.45
2022-10-22T11:28:41.753Z,15.55
2022-10-22T11:29:34.195Z,14.38
2022-10-22T11:30:23.144Z,16.25
2022-10-22T11:31:19.080Z,15.40
2022-10-22T11:32:07.453Z,15.93
2022-10-22T11:32:57.477Z,15.07
2022-10-22T11:34:32.630Z,15.13
2022-10-22T11:35:26.726Z,15.13
2022-10-22T11:36:14.164Z,15.98
2022-10-22T11:37:01.917Z,14.77
2022-10-22T11:37:49.195Z,15.63
2022-10-22T11:38:36.996Z,16.08
2022-10-22T11:39:35.399Z,15.18
2022-10-22T11:40:40.259Z,15.90
2022-10-22T11:41:30.916Z,15.27
2022-10-22T11:43:13.479Z,15.60
2022-10-22T11:44:13.077Z,16.10
2022-10-22T11:45:01.225Z,16.37
2022-10-22T11:45:50.769Z,15.35
2022-10-22T11:46:40.354Z,15.32
2022-10-22T11:47:30.210Z,16.05
2022-10-22T11:48:19.518Z,14.82
2022-10-22T11:49:18.522Z,15.65
2022-10-22T11:50:25.926Z,15.32
2022-10-22T11:51:37.297Z,15.00
2022-10-22T11:52:26.486Z,15.50
2022-10-22T11:53:15.211Z,14.15
2022-10-22T11:54:25.413Z,14.80
2022-10-22T11:55:49.596Z,15.18
2022-10-22T11:56:40.479Z,14.93
2022-10-22T11:58:34.216Z,15.60
2022-10-22T12:00:00.157Z,15.65
2022-10-22T12:00:50.836Z,15.38